createdAt,value
2018-07-21T00:02:03.817Z,6.90
2018-07-21T00:04:33.582Z,9.20
2018-07-21T00:07:01.861Z,8.00
2018-07-21T00:09:30.397Z,6.57
2018-07-21T00:11:59.510Z,8.17
2018-07-21T00:14:27.878Z,6.00
2018-07-21T00:16:56.155Z,7.63
2018-07-21T00:19:24.595Z,7.73
2018-07-21T00:21:52.878Z,5.80
2018-07-21T00:24:21.171Z,5.80
2018-07-21T00:26:50.260Z,5.90
2018-07-21T00:29:20.561Z,7.13
2018-07-21T00:31:49.244Z,9.00
2018-07-21T00:34:18.110Z,8.93
2018-07-21T00:36:46.427Z,6.10
2018-07-21T00:39:15.462Z,8.83
2018-07-21T00:41:44.214Z,8.23
2018-07-21T00:44:13.354Z,8.20
2018-07-21T00:46:41.676Z,7.03
2018-07-21T00:49:10.985Z,8.83
2018-07-21T00:51:39.318Z,12.23
2018-07-21T00:54:07.568Z,9.30
2018-07-21T00:56:36.436Z,8.13
2018-07-21T00:59:04.710Z,13.93
2018-07-21T01:01:33.805Z,12.37
2018-07-21T01:04:03.082Z,10.43
2018-07-21T01:06:31.576Z,8.87
2018-07-21T01:08:59.978Z,7.23
2018-07-21T01:11:28.307Z,9.00
2018-07-21T01:13:56.573Z,10.67
2018-07-21T01:16:24.906Z,10.87
2018-07-21T01:18:53.760Z,8.57
2018-07-21T01:21:23.306Z,8.30
2018-07-21T01:23:51.574Z,8.37
2018-07-21T01:26:19.885Z,11.97
2018-07-21T01:28:57.867Z,9.90
2018-07-21T01:31:26.130Z,12.70
2018-07-21T01:33:54.978Z,17.07
2018-07-21T01:36:23.317Z,11.27
2018-07-21T01:38:51.549Z,9.10
2018-07-21T01:41:20.642Z,10.90
2018-07-21T01:43:49.011Z,8.70
2018-07-21T01:46:17.299Z,13.07
2018-07-21T01:48:45.589Z,9.17
2018-07-21T01:51:15.000Z,10.83
2018-07-21T01:53:43.288Z,9.93
2018-07-21T01:56:11.654Z,14.87
2018-07-21T01:58:39.913Z,13.63
2018-07-21T02:01:08.178Z,9.20
2018-07-21T02:03:36.453Z,8.07
2018-07-21T02:06:04.457Z,9.33
2018-07-21T02:08:32.736Z,9.97
2018-07-21T02:11:01.013Z,11.50
2018-07-21T02:13:29.262Z,15.67
2018-07-21T02:15:57.543Z,8.63
2018-07-21T02:18:26.825Z,14.47
2018-07-21T02:20:55.561Z,15.50
2018-07-21T02:23:24.224Z,10.47
2018-07-21T02:25:53.174Z,14.03
2018-07-21T02:28:21.422Z,10.70
2018-07-21T02:30:49.726Z,11.07
2018-07-21T02:33:17.995Z,18.33
2018-07-21T02:35:46.249Z,9.47
2018-07-21T02:38:15.434Z,10.67
2018-07-21T02:40:43.922Z,13.00
2018-07-21T02:43:12.858Z,9.77
2018-07-21T02:45:41.464Z,10.87
2018-07-21T02:48:09.924Z,8.57
2018-07-21T02:50:38.214Z,12.33
2018-07-21T02:53:07.042Z,11.73
2018-07-21T02:55:36.425Z,11.40
2018-07-21T02:58:04.805Z,8.90
2018-07-21T03:00:34.218Z,10.77
2018-07-21T03:03:02.607Z,8.63
2018-07-21T03:05:30.949Z,12.53
2018-07-21T03:07:59.225Z,10.03
2018-07-21T03:10:28.114Z,10.13
2018-07-21T03:12:56.525Z,10.10
2018-07-21T03:15:24.787Z,10.27
2018-07-21T03:17:53.058Z,10.23
2018-07-21T03:20:21.485Z,10.07
2018-07-21T03:22:51.217Z,9.60
2018-07-21T03:25:19.877Z,9.97
2018-07-21T03:27:48.415Z,9.13
2018-07-21T03:30:17.094Z,11.97
2018-07-21T03:32:45.412Z,11.20
2018-07-21T03:35:14.039Z,20.50
2018-07-21T03:37:42.321Z,13.87
2018-07-21T03:40:10.626Z,11.83
2018-07-21T03:42:39.327Z,14.23
2018-07-21T03:45:08.409Z,12.73
2018-07-21T03:47:38.656Z,11.60
2018-07-21T03:50:06.980Z,11.03
2018-07-21T03:52:35.253Z,13.10
2018-07-21T03:55:03.568Z,14.37
2018-07-21T03:57:31.813Z,12.93
2018-07-21T04:00:00.273Z,13.23
2018-07-21T04:02:28.558Z,15.17
2018-07-21T04:04:56.833Z,9.40
2018-07-21T04:07:25.097Z,10.70
2018-07-21T04:09:53.717Z,11.47
2018-07-21T04:12:22.010Z,12.97
2018-07-21T04:14:50.274Z,19.30
2018-07-21T04:17:26.060Z,13.13
2018-07-21T04:19:55.293Z,14.53
2018-07-21T04:22:24.717Z,14.40
2018-07-21T04:24:53.162Z,17.23
2018-07-21T04:27:22.085Z,9.73
2018-07-21T04:29:50.541Z,8.70
2018-07-21T04:32:20.574Z,10.97
2018-07-21T04:34:48.918Z,7.67
2018-07-21T04:37:17.206Z,13.97
2018-07-21T04:39:45.850Z,10.57
2018-07-21T04:42:14.786Z,12.30
2018-07-21T04:44:43.062Z,11.60
2018-07-21T04:47:12.335Z,10.07
2018-07-21T04:49:40.597Z,11.30
2018-07-21T04:52:09.037Z,10.87
2018-07-21T04:54:37.397Z,10.60
2018-07-21T04:57:05.907Z,14.73
2018-07-21T04:59:34.175Z,9.77
2018-07-21T05:02:03.062Z,10.57
2018-07-21T05:04:31.314Z,10.37
2018-07-21T05:06:59.315Z,8.43
2018-07-21T05:09:27.553Z,10.27
2018-07-21T05:11:55.816Z,13.53
2018-07-21T05:14:25.390Z,13.57
2018-07-21T05:16:54.353Z,23.83
2018-07-21T05:19:22.619Z,13.10
2018-07-21T05:21:50.884Z,19.53
2018-07-21T05:24:19.332Z,21.10
2018-07-21T05:26:47.605Z,17.30
2018-07-21T05:29:15.865Z,13.50
2018-07-21T05:31:44.105Z,10.77
2018-07-21T05:34:13.001Z,11.13
2018-07-21T05:36:41.282Z,10.23
2018-07-21T05:39:10.973Z,15.07
2018-07-21T05:41:39.600Z,12.87
2018-07-21T05:44:07.907Z,12.27
2018-07-21T05:46:36.650Z,9.60
2018-07-21T05:49:05.546Z,15.13
2018-07-21T05:51:34.031Z,14.47
2018-07-21T05:54:02.931Z,11.33
2018-07-21T05:56:32.190Z,12.93
2018-07-21T05:59:01.378Z,10.07
2018-07-21T06:01:29.736Z,9.93
2018-07-21T06:03:58.030Z,10.53
2018-07-21T06:06:26.297Z,13.00
2018-07-21T06:08:54.582Z,11.67
2018-07-21T06:11:23.116Z,13.97
2018-07-21T06:13:51.405Z,12.30
2018-07-21T06:16:19.730Z,11.73
2018-07-21T06:18:48.930Z,8.70
2018-07-21T06:21:17.990Z,11.40
2018-07-21T06:23:46.430Z,10.80
2018-07-21T06:26:14.706Z,10.73
2018-07-21T06:28:43.059Z,10.13
2018-07-21T06:31:11.646Z,10.43
2018-07-21T06:33:40.000Z,13.60
2018-07-21T06:36:08.238Z,9.30
2018-07-21T06:38:36.502Z,10.00
2018-07-21T06:41:04.770Z,10.23
2018-07-21T06:43:32.772Z,13.07
2018-07-21T06:46:01.077Z,10.43
2018-07-21T06:48:29.363Z,9.87
2018-07-21T06:50:57.711Z,10.53
2018-07-21T06:53:27.001Z,9.07
2018-07-21T06:55:55.751Z,12.27
2018-07-21T06:58:24.052Z,9.20
2018-07-21T07:00:52.306Z,9.77
2018-07-21T07:03:20.605Z,10.53
2018-07-21T07:05:49.289Z,10.17
2018-07-21T07:08:17.628Z,9.70
2018-07-21T07:10:46.056Z,12.63
2018-07-21T07:13:14.151Z,10.90
2018-07-21T07:15:42.406Z,15.23
2018-07-21T07:18:10.717Z,11.33
2018-07-21T07:20:39.888Z,9.30
2018-07-21T07:23:08.178Z,13.23
2018-07-21T07:25:36.434Z,10.03
2018-07-21T07:28:05.189Z,9.57
2018-07-21T07:30:33.466Z,9.93
2018-07-21T07:33:02.326Z,8.97
2018-07-21T07:35:30.970Z,15.07
2018-07-21T07:37:59.282Z,9.87
2018-07-21T07:40:27.578Z,14.67
2018-07-21T07:42:55.858Z,11.10
2018-07-21T07:45:24.153Z,12.27
2018-07-21T07:47:52.506Z,15.63
2018-07-21T07:50:20.781Z,11.30
2018-07-21T07:52:49.142Z,11.73
2018-07-21T07:55:17.399Z,13.87
2018-07-21T07:57:45.910Z,9.93
2018-07-21T08:00:15.387Z,10.03
2018-07-21T08:02:43.372Z,9.30
2018-07-21T08:05:12.059Z,10.10
2018-07-21T08:07:41.736Z,8.73
2018-07-21T08:10:10.915Z,10.47
2018-07-21T08:12:39.242Z,11.27
2018-07-21T08:15:07.521Z,9.30
2018-07-21T08:17:35.758Z,8.13
2018-07-21T08:20:04.051Z,11.50
2018-07-21T08:22:32.303Z,9.80
2018-07-21T08:25:00.614Z,9.47
2018-07-21T08:27:28.874Z,11.97
2018-07-21T08:29:57.784Z,9.70
2018-07-21T08:32:26.038Z,11.00
2018-07-21T08:34:54.350Z,9.43
2018-07-21T08:37:22.620Z,10.83
2018-07-21T08:39:50.887Z,10.33
2018-07-21T08:42:19.144Z,8.03
2018-07-21T08:44:47.502Z,10.80
2018-07-21T08:47:17.345Z,9.17
2018-07-21T08:49:47.579Z,10.10
2018-07-21T08:52:16.063Z,9.20
2018-07-21T08:54:44.625Z,6.47
2018-07-21T08:57:13.124Z,5.33
2018-07-21T08:59:41.389Z,5.07
2018-07-21T09:02:09.946Z,4.73
2018-07-21T09:04:38.650Z,4.90
2018-07-21T09:07:06.894Z,5.20
2018-07-21T09:09:35.191Z,5.80
2018-07-21T09:12:03.522Z,4.70
2018-07-21T09:14:32.768Z,5.37
2018-07-21T09:17:01.031Z,8.73
2018-07-21T09:19:30.153Z,6.87
2018-07-21T09:21:58.395Z,9.80
2018-07-21T09:24:27.317Z,9.33
2018-07-21T09:26:55.602Z,10.50
2018-07-21T09:29:23.916Z,6.77
2018-07-21T09:31:52.185Z,7.60
2018-07-21T09:34:20.466Z,7.97
2018-07-21T09:36:48.729Z,6.67
2018-07-21T09:39:16.987Z,8.00
2018-07-21T09:41:45.745Z,5.00
2018-07-21T09:44:15.081Z,4.77
2018-07-21T09:46:44.159Z,4.50
2018-07-21T09:49:12.600Z,5.47
2018-07-21T09:51:40.909Z,4.83
2018-07-21T09:54:09.981Z,7.27
2018-07-21T09:56:39.410Z,14.43
2018-07-21T09:59:07.677Z,10.33
2018-07-21T10:01:36.573Z,8.27
2018-07-21T10:04:07.039Z,8.00
2018-07-21T10:06:35.512Z,6.00
2018-07-21T10:09:05.949Z,8.67
2018-07-21T10:11:34.809Z,7.57
2018-07-21T10:14:05.051Z,13.33
2018-07-21T10:16:34.747Z,8.93
2018-07-21T10:19:03.060Z,9.97
2018-07-21T10:21:31.315Z,7.10
2018-07-21T10:24:05.067Z,6.67
2018-07-21T10:26:39.082Z,9.03
2018-07-21T10:29:11.167Z,8.03
2018-07-21T10:31:40.079Z,8.40
2018-07-21T10:34:08.892Z,9.37
2018-07-21T10:36:37.587Z,9.83
2018-07-21T10:39:07.886Z,9.17
2018-07-21T10:41:36.226Z,8.70
2018-07-21T10:44:04.674Z,8.10
2018-07-21T10:46:33.214Z,9.03
2018-07-21T10:49:01.460Z,8.47
2018-07-21T10:51:30.252Z,13.60
2018-07-21T10:54:00.966Z,14.33
2018-07-21T10:56:31.132Z,10.10
2018-07-21T10:58:59.651Z,10.63
2018-07-21T11:01:27.953Z,10.47
2018-07-21T11:03:56.842Z,11.30
2018-07-21T11:06:25.158Z,11.13
2018-07-21T11:08:54.065Z,14.13
2018-07-21T11:11:22.366Z,12.70
2018-07-21T11:13:50.618Z,12.23
2018-07-21T11:16:18.837Z,18.50
2018-07-21T11:18:47.689Z,18.33
2018-07-21T11:21:16.903Z,16.27
2018-07-21T11:23:45.183Z,11.93
2018-07-21T11:26:13.730Z,11.67
2018-07-21T11:28:41.978Z,16.03
2018-07-21T11:31:10.344Z,12.47
2018-07-21T11:33:38.609Z,12.17
2018-07-21T11:36:08.071Z,11.17
2018-07-21T11:38:36.129Z,10.77
2018-07-21T11:41:05.137Z,11.37
2018-07-21T11:43:33.541Z,12.30
2018-07-21T11:46:01.830Z,16.37
2018-07-21T11:48:30.073Z,12.30
2018-07-21T11:50:58.365Z,15.27
2018-07-21T11:53:26.851Z,14.97
2018-07-21T11:55:55.641Z,17.77
2018-07-21T11:58:23.937Z,17.90
2018-07-21T12:00:52.381Z,18.97
2018-07-21T12:03:21.361Z,18.17
2018-07-21T12:05:50.265Z,22.87
2018-07-21T12:08:18.542Z,15.53
2018-07-21T12:10:47.119Z,20.63
2018-07-21T12:13:15.484Z,19.70
2018-07-21T12:15:43.800Z,19.73
2018-07-21T12:18:11.821Z,17.33
2018-07-21T12:20:40.102Z,15.90
2018-07-21T12:23:08.483Z,18.50
2018-07-21T12:25:36.762Z,18.83
2018-07-21T12:28:05.609Z,19.47
2018-07-21T12:30:33.894Z,19.03
2018-07-21T12:33:02.233Z,14.37
2018-07-21T12:35:30.510Z,19.50
2018-07-21T12:37:58.787Z,16.63
2018-07-21T12:40:27.038Z,18.10
2018-07-21T12:42:55.745Z,15.53
2018-07-21T12:45:24.114Z,15.47
2018-07-21T12:47:52.378Z,18.20
2018-07-21T12:50:20.650Z,15.07
2018-07-21T12:52:49.853Z,16.87
2018-07-21T12:55:18.774Z,17.80
2018-07-21T12:57:47.074Z,16.63
2018-07-21T13:00:15.345Z,14.27
2018-07-21T13:02:43.689Z,16.23
2018-07-21T13:05:12.206Z,16.57
2018-07-21T13:07:41.418Z,17.57
2018-07-21T13:10:09.705Z,17.90
2018-07-21T13:12:38.015Z,17.30
2018-07-21T13:15:06.617Z,19.13
2018-07-21T13:17:35.682Z,16.47
2018-07-21T13:20:04.664Z,16.57
2018-07-21T13:22:32.939Z,15.83
2018-07-21T13:25:01.686Z,16.77
2018-07-21T13:27:30.006Z,15.77
2018-07-21T13:29:58.624Z,16.60
2018-07-21T13:32:26.932Z,16.10
2018-07-21T13:34:55.319Z,15.63
2018-07-21T13:37:23.697Z,16.60
2018-07-21T13:39:51.970Z,18.13
2018-07-21T13:42:20.238Z,15.67
2018-07-21T13:44:48.500Z,17.70
2018-07-21T13:47:16.786Z,16.60
2018-07-21T13:49:45.741Z,16.77
2018-07-21T13:52:14.049Z,15.60
2018-07-21T13:54:42.840Z,17.63
2018-07-21T13:57:11.134Z,16.13
2018-07-21T13:59:39.501Z,14.67
2018-07-21T14:02:09.006Z,15.03
2018-07-21T14:04:37.792Z,20.53
2018-07-21T14:07:06.478Z,18.33
2018-07-21T14:09:34.774Z,27.83
2018-07-21T14:12:03.542Z,18.03
2018-07-21T14:14:31.831Z,14.73
2018-07-21T14:17:00.161Z,23.30
2018-07-21T14:19:28.392Z,11.07
2018-07-21T14:21:56.690Z,10.57
2018-07-21T14:24:25.094Z,11.67
2018-07-21T14:26:53.400Z,13.17
2018-07-21T14:29:21.943Z,14.43
2018-07-21T14:31:50.663Z,11.97
2018-07-21T14:34:19.519Z,10.90
2018-07-21T14:36:48.169Z,11.00
2018-07-21T14:39:16.450Z,10.37
2018-07-21T14:41:45.258Z,10.17
2018-07-21T14:44:13.722Z,9.30
2018-07-21T14:46:42.173Z,11.23
2018-07-21T14:49:10.465Z,9.90
2018-07-21T14:51:39.265Z,10.60
2018-07-21T14:54:07.634Z,10.47
2018-07-21T14:56:35.896Z,9.73
2018-07-21T14:59:04.222Z,9.33
2018-07-21T15:01:33.005Z,10.20
2018-07-21T15:04:01.282Z,10.53
2018-07-21T15:06:29.537Z,12.07
2018-07-21T15:08:58.136Z,16.87
2018-07-21T15:11:27.086Z,37.57
2018-07-21T15:13:55.709Z,21.70
2018-07-21T15:16:24.578Z,20.83
2018-07-21T15:18:53.250Z,15.93
2018-07-21T15:21:21.883Z,13.53
2018-07-21T15:23:50.280Z,19.90
2018-07-21T15:26:18.529Z,15.13
2018-07-21T15:28:46.819Z,10.40
2018-07-21T15:31:15.603Z,11.27
2018-07-21T15:33:44.497Z,10.20
2018-07-21T15:36:13.244Z,10.10
2018-07-21T15:38:41.545Z,10.00
2018-07-21T15:41:09.834Z,13.30
2018-07-21T15:43:38.137Z,10.60
2018-07-21T15:46:06.437Z,12.60
2018-07-21T15:48:34.446Z,12.63
2018-07-21T15:51:02.697Z,11.43
2018-07-21T15:53:30.992Z,11.43
2018-07-21T15:55:59.268Z,10.77
2018-07-21T15:58:27.539Z,12.30
2018-07-21T16:00:56.561Z,12.13
2018-07-21T16:03:25.507Z,12.47
2018-07-21T16:05:54.284Z,11.80
2018-07-21T16:08:22.637Z,11.57
2018-07-21T16:10:51.294Z,12.83
2018-07-21T16:13:20.472Z,11.73
2018-07-21T16:15:48.767Z,13.70
2018-07-21T16:18:17.097Z,13.00
2018-07-21T16:20:45.365Z,15.00
2018-07-21T16:23:13.647Z,15.70
2018-07-21T16:25:41.902Z,13.47
2018-07-21T16:28:10.606Z,12.33
2018-07-21T16:30:39.481Z,13.13
2018-07-21T16:33:14.984Z,13.13
2018-07-21T16:35:43.245Z,13.27
2018-07-21T16:38:11.517Z,13.47
2018-07-21T16:40:39.790Z,12.40
2018-07-21T16:43:08.610Z,13.17
2018-07-21T16:45:37.254Z,12.50
2018-07-21T16:48:05.877Z,12.93
2018-07-21T16:50:34.168Z,13.80
2018-07-21T16:53:02.470Z,14.07
2018-07-21T16:55:30.809Z,12.97
2018-07-21T16:57:59.076Z,12.53
2018-07-21T17:00:27.096Z,12.50
2018-07-21T17:02:56.328Z,11.83
2018-07-21T17:05:24.666Z,13.40
2018-07-21T17:07:53.219Z,11.73
2018-07-21T17:10:21.480Z,12.03
2018-07-21T17:12:49.830Z,14.20
2018-07-21T17:15:18.781Z,13.50
2018-07-21T17:17:47.049Z,14.70
2018-07-21T17:20:15.338Z,14.93
2018-07-21T17:22:43.718Z,13.13
2018-07-21T17:25:12.371Z,14.20
2018-07-21T17:27:40.664Z,16.47
2018-07-21T17:30:09.120Z,13.27
2018-07-21T17:32:37.358Z,13.87
2018-07-21T17:35:05.729Z,13.47
2018-07-21T17:37:34.037Z,12.70
2018-07-21T17:40:02.319Z,14.63
2018-07-21T17:42:31.072Z,13.70
2018-07-21T17:44:59.345Z,17.27
2018-07-21T17:47:27.605Z,16.90
2018-07-21T17:49:56.697Z,14.60
2018-07-21T17:52:25.587Z,17.30
2018-07-21T17:54:53.890Z,14.70
2018-07-21T17:57:22.281Z,15.83
2018-07-21T17:59:50.575Z,14.90
2018-07-21T18:02:19.274Z,19.70
2018-07-21T18:04:48.700Z,15.43
2018-07-21T18:07:17.423Z,18.93
2018-07-21T18:09:45.774Z,16.07
2018-07-21T18:12:15.629Z,14.40
2018-07-21T18:14:44.439Z,15.50
2018-07-21T18:17:12.713Z,15.93
2018-07-21T18:19:41.044Z,14.37
2018-07-21T18:22:09.041Z,15.13
2018-07-21T18:24:37.448Z,14.73
2018-07-21T18:27:06.031Z,13.47
2018-07-21T18:29:34.333Z,13.20
2018-07-21T18:32:02.635Z,12.77
2018-07-21T18:34:30.929Z,12.53
2018-07-21T18:36:59.562Z,13.93
2018-07-21T18:39:28.841Z,15.87
2018-07-21T18:41:57.377Z,13.37
2018-07-21T18:44:25.690Z,13.23
2018-07-21T18:46:53.967Z,12.50
2018-07-21T18:49:22.238Z,11.90
2018-07-21T18:51:50.510Z,14.27
2018-07-21T18:54:18.525Z,13.23
2018-07-21T18:56:46.802Z,14.27
2018-07-21T18:59:15.085Z,14.03
2018-07-21T19:01:43.351Z,12.83
2018-07-21T19:04:11.631Z,13.87
2018-07-21T19:06:39.886Z,14.33
2018-07-21T19:09:09.307Z,19.93
2018-07-21T19:11:37.881Z,14.43
2018-07-21T19:14:06.786Z,14.53
2018-07-21T19:16:38.834Z,15.60
2018-07-21T19:19:07.886Z,15.80
2018-07-21T19:21:37.451Z,14.20
2018-07-21T19:24:05.733Z,14.37
2018-07-21T19:26:39.537Z,16.93
2018-07-21T19:29:07.782Z,15.37
2018-07-21T19:31:36.062Z,15.83
2018-07-21T19:34:04.322Z,14.50
2018-07-21T19:36:32.611Z,18.33
2018-07-21T19:39:00.868Z,22.37
2018-07-21T19:41:34.548Z,16.70
2018-07-21T19:44:03.337Z,15.13
2018-07-21T19:46:31.698Z,15.80
2018-07-21T19:48:59.936Z,16.17
2018-07-21T19:51:28.209Z,15.17
2018-07-21T19:53:56.582Z,15.20
2018-07-21T19:56:24.882Z,15.33
2018-07-21T19:58:53.954Z,19.43
2018-07-21T20:01:23.176Z,27.07
2018-07-21T20:03:51.463Z,48.37
2018-07-21T20:06:19.782Z,46.97
2018-07-21T20:08:48.073Z,38.33
2018-07-21T20:11:16.473Z,37.87
2018-07-21T20:13:44.766Z,24.90
2018-07-21T20:16:13.025Z,20.30
2018-07-21T20:18:41.291Z,21.90
2018-07-21T20:21:09.644Z,23.17
2018-07-21T20:23:38.127Z,19.53
2018-07-21T20:26:07.130Z,19.17
2018-07-21T20:28:35.389Z,21.53
2018-07-21T20:31:03.905Z,22.83
2018-07-21T20:33:32.298Z,23.27
2018-07-21T20:36:00.556Z,21.30
2018-07-21T20:38:28.821Z,21.67
2018-07-21T20:40:57.094Z,20.53
2018-07-21T20:43:25.395Z,23.63
2018-07-21T20:45:54.154Z,25.93
2018-07-21T20:48:22.503Z,22.83
2018-07-21T20:50:50.794Z,22.73
2018-07-21T20:53:19.593Z,24.43
2018-07-21T20:55:47.871Z,25.17
2018-07-21T20:58:16.129Z,22.57
2018-07-21T21:00:44.453Z,22.70
2018-07-21T21:03:12.745Z,22.10
2018-07-21T21:05:41.050Z,22.90
2018-07-21T21:08:09.843Z,22.30
2018-07-21T21:10:39.115Z,22.03
2018-07-21T21:13:07.918Z,22.33
2018-07-21T21:15:36.197Z,22.23
2018-07-21T21:18:04.614Z,23.13
2018-07-21T21:20:32.934Z,22.67
2018-07-21T21:23:01.218Z,26.97
2018-07-21T21:25:29.526Z,20.60
2018-07-21T21:27:57.622Z,20.87
2018-07-21T21:30:25.917Z,21.53
2018-07-21T21:32:54.189Z,20.77
2018-07-21T21:35:22.468Z,21.03
2018-07-21T21:37:50.727Z,20.13
2018-07-21T21:40:19.243Z,20.03
2018-07-21T21:42:47.786Z,20.63
2018-07-21T21:45:16.066Z,20.57
2018-07-21T21:47:44.424Z,20.47
2018-07-21T21:50:12.704Z,19.10
2018-07-21T21:52:41.044Z,19.97
2018-07-21T21:55:09.348Z,19.53
2018-07-21T21:57:38.075Z,18.47
2018-07-21T22:00:09.445Z,18.27
2018-07-21T22:02:37.922Z,18.37
2018-07-21T22:05:06.286Z,17.63
2018-07-21T22:07:34.572Z,18.23
2018-07-21T22:10:02.848Z,16.53
2018-07-21T22:12:31.231Z,17.70
2018-07-21T22:14:59.489Z,15.67
2018-07-21T22:17:27.766Z,15.67
2018-07-21T22:19:56.042Z,15.70
2018-07-21T22:22:24.306Z,15.30
2018-07-21T22:24:52.577Z,15.80
2018-07-21T22:27:20.870Z,14.07
2018-07-21T22:29:49.140Z,13.87
2018-07-21T22:32:17.426Z,13.47
2018-07-21T22:34:45.706Z,14.37
2018-07-21T22:37:14.497Z,14.60
2018-07-21T22:39:42.766Z,13.67
2018-07-21T22:42:11.086Z,15.83
2018-07-21T22:44:39.358Z,13.63
2018-07-21T22:47:07.654Z,13.77
2018-07-21T22:49:36.254Z,13.87
2018-07-21T22:52:05.437Z,13.97
2018-07-21T22:54:34.567Z,14.80
2018-07-21T22:57:03.149Z,13.20
2018-07-21T22:59:31.397Z,14.37
2018-07-21T23:01:59.682Z,13.27
2018-07-21T23:04:27.957Z,13.13
2018-07-21T23:06:57.102Z,14.10
2018-07-21T23:09:25.383Z,14.23
2018-07-21T23:11:53.638Z,14.13
2018-07-21T23:14:21.938Z,14.83
2018-07-21T23:16:50.269Z,15.57
2018-07-21T23:19:18.570Z,14.63
2018-07-21T23:21:46.845Z,15.00
2018-07-21T23:24:15.129Z,15.47
2018-07-21T23:26:43.149Z,14.77
2018-07-21T23:29:12.110Z,14.50
2018-07-21T23:31:41.061Z,16.57
2018-07-21T23:34:10.030Z,15.00
2018-07-21T23:36:38.102Z,14.50
2018-07-21T23:39:08.623Z,14.33
2018-07-21T23:41:36.943Z,14.17
2018-07-21T23:44:05.382Z,14.30
2018-07-21T23:46:33.678Z,12.53
2018-07-21T23:49:02.088Z,11.43
2018-07-21T23:51:31.308Z,10.50
2018-07-21T23:53:59.627Z,10.93
2018-07-21T23:56:27.919Z,12.00
2018-07-21T23:58:56.199Z,10.90
